PrentiSS Brown — WDE6848 — position and weather

sailwx.info

Track history (hours):
 
Tides and Currents Weather Stations Pressure Air Temp Water Temp Dewpoint Dewpoint Depression Visibility Wind Speed Wind Dir Waves Ship Positions

PrentiSS Brown

Owner: Port City Marine Services Inc, Muskegon, MI. More information available from US FCC via Universal Licensing System and Coast Guard Vessel Documentation Center.

Last reported at 2017-Dec-08 08:53 UTC. Time now 2017-Dec-15 10:16 UTC.
Position N 45°10' W 086°13'.

; draft 7 m.

Type: Other ship. MMSI: 366922280.

Date/timePositionNaut miles runAvg speedWind from/ knotsBaromVisibWave heightAir tempDewpointWater temp
2017-Dec-08 08:53N 45°10' W 086°13'3 6.9
2017-Dec-08 08:30N 45°11' W 086°09'3 6.8
2017-Dec-08 08:00N 45°11' W 086°05'3 6.8
2017-Dec-08 07:30N 45°12' W 085°60'4 7.2
2017-Dec-08 07:00N 45°13' W 085°55'4 7.5
2017-Dec-08 06:30N 45°13' W 085°50'4 7.4
2017-Dec-08 06:00N 45°14' W 085°44'4 7.2
2017-Dec-08 05:30N 45°14' W 085°40'4 7.3
2017-Dec-08 05:00N 45°16' W 085°35'4 7.5
2017-Dec-08 04:30N 45°17' W 085°30'4 7.4
2017-Dec-08 04:00N 45°18' W 085°25'4 7.5
2017-Dec-08 03:30N 45°20' W 085°20'2 3.9
2017-Dec-08 03:00N 45°19' W 085°17'0 0.7
2017-Dec-08 02:31N 45°19' W 085°18'0 0.0
2017-Dec-08 02:00N 45°19' W 085°18'0 0.0
2017-Dec-08 01:31N 45°19' W 085°18'0 0.0
2017-Dec-08 01:01N 45°19' W 085°18'0 0.0
2017-Dec-08 00:30N 45°19' W 085°18'0 0.0
2017-Dec-08 00:01N 45°19' W 085°18'0 0.0
2017-Dec-07 23:30N 45°19' W 085°18'0 0.0
2017-Dec-07 23:01N 45°19' W 085°18'0 0.0
2017-Dec-07 22:30N 45°19' W 085°18'0 0.0
2017-Dec-07 22:01N 45°19' W 085°18'0 0.1
2017-Dec-07 21:30N 45°19' W 085°18'1 2.9
2017-Dec-07 21:00N 45°20' W 085°18'4 7.3
2017-Dec-07 20:30N 45°22' W 085°23'2 3.8
2017-Dec-07 20:01N 45°23' W 085°26'1 2.2
2017-Dec-07 19:30N 45°22' W 085°25'1 2.2
2017-Dec-07 19:01N 45°21' W 085°24'1 2.4
2017-Dec-07 18:30N 45°20' W 085°22'1 2.4
2017-Dec-07 18:00N 45°20' W 085°20'1 2.4
2017-Dec-07 17:30N 45°20' W 085°19'1 1.9
2017-Dec-07 17:00N 45°20' W 085°18'1 1.6
2017-Dec-07 16:30N 45°20' W 085°17'0 0.8
2017-Dec-07 16:01N 45°19' W 085°17'4 7.2
2017-Dec-07 15:30N 45°21' W 085°21'4 8.9
2017-Dec-07 15:00N 45°24' W 085°27'5 9.2
2017-Dec-07 14:30N 45°26' W 085°32'5 9.0
2017-Dec-07 14:01N 45°28' W 085°38'5 9.1
2017-Dec-07 13:30N 45°31' W 085°43'4 8.8
2017-Dec-07 13:01N 45°32' W 085°49'4 8.8
2017-Dec-07 12:30N 45°33' W 085°56'4 8.7
2017-Dec-07 12:00N 45°33' W 086°02'5 9.2
2017-Dec-07 11:31N 45°37' W 086°06'5 9.2
2017-Dec-07 11:00N 45°40' W 086°11'  
2017-Dec-02 16:22N 45°13' W 085°39'3 8.2
2017-Dec-02 16:00N 45°14' W 085°35'4 8.3
2017-Dec-02 15:30N 45°16' W 085°30'4 8.2
2017-Dec-02 15:00N 45°18' W 085°25'4 8.3
2017-Dec-02 14:30N 45°20' W 085°20'2 3.6
2017-Dec-02 14:00N 45°19' W 085°17'0 0.5
2017-Dec-02 13:30N 45°19' W 085°18'0 0.0
2017-Dec-02 13:00N 45°19' W 085°18'0 0.0
2017-Dec-02 12:30N 45°19' W 085°18'0 0.0
2017-Dec-02 12:00N 45°19' W 085°18'0 0.0
2017-Dec-02 11:30N 45°19' W 085°18'0 0.1
2017-Dec-02 11:00N 45°19' W 085°18'0 0.0
2017-Dec-02 10:30N 45°19' W 085°18'0 0.0
2017-Dec-02 10:00N 45°19' W 085°18'0 0.0
2017-Dec-02 09:30N 45°19' W 085°18'0 0.0
2017-Dec-02 09:00N 45°19' W 085°18'0 0.0
2017-Dec-02 08:30N 45°19' W 085°18'0 0.0
2017-Dec-02 08:00N 45°19' W 085°18'1 1.9
2017-Dec-02 07:30N 45°20' W 085°18'4 8.3
2017-Dec-02 07:00N 45°19' W 085°23'5 9.2
2017-Dec-02 06:30N 45°17' W 085°29'4 9.1
2017-Dec-02 06:00N 45°14' W 085°35'  
2017-Nov-29 23:58N 45°14' W 085°47'4 8.6
2017-Nov-29 23:29N 45°15' W 085°41'4 8.7
2017-Nov-29 23:00N 45°16' W 085°35'4 8.6
2017-Nov-29 22:30N 45°17' W 085°29'4 8.6
2017-Nov-29 22:00N 45°19' W 085°23'4 8.3
2017-Nov-29 21:30N 45°20' W 085°18'1 2.1
2017-Nov-29 21:00N 45°19' W 085°18'0 0.0
2017-Nov-29 20:30N 45°19' W 085°18'0 0.0
2017-Nov-29 20:00N 45°19' W 085°18'0 0.0
2017-Nov-29 19:30N 45°19' W 085°18'0 0.0
2017-Nov-29 19:00N 45°19' W 085°18'0 0.0
2017-Nov-29 18:30N 45°19' W 085°18'0 0.0
2017-Nov-29 18:00N 45°19' W 085°18'0 0.0
2017-Nov-29 17:30N 45°19' W 085°18'0 0.0
2017-Nov-29 17:00N 45°19' W 085°18'0 0.0
2017-Nov-29 16:30N 45°19' W 085°18'0 0.0
2017-Nov-29 16:00N 45°19' W 085°18'0 0.0
2017-Nov-29 15:30N 45°19' W 085°18'1 1.2
2017-Nov-29 15:00N 45°20' W 085°17'4 7.4
2017-Nov-29 14:30N 45°22' W 085°22'4 9.0
2017-Nov-29 14:00N 45°24' W 085°27'5 9.2
2017-Nov-29 13:30N 45°26' W 085°33'5 9.1
2017-Nov-29 13:00N 45°29' W 085°38'5 9.2
2017-Nov-29 12:30N 45°31' W 085°44'  
Track history (hours):
 
Tides and Currents Weather Stations Pressure Air Temp Water Temp Dewpoint Dewpoint Depression Visibility Wind Speed Wind Dir Waves Ship Positions

PrentiSS Brown

Owner: Port City Marine Services Inc, Muskegon, MI. More information available from US FCC via Universal Licensing System and Coast Guard Vessel Documentation Center.

Last reported at 2017-Dec-08 08:53 UTC. Time now 2017-Dec-15 10:16 UTC.
Position N 45°10' W 086°13'.

; draft 7 m.

Type: Other ship. MMSI: 366922280.

Date/timePositionNaut miles runAvg speedWind from/ knotsBaromVisibWave heightAir tempDewpointWater temp
2017-Dec-08 08:53N 45°10' W 086°13'3 6.9
2017-Dec-08 08:30N 45°11' W 086°09'3 6.8
2017-Dec-08 08:00N 45°11' W 086°05'3 6.8
2017-Dec-08 07:30N 45°12' W 085°60'4 7.2
2017-Dec-08 07:00N 45°13' W 085°55'4 7.5
2017-Dec-08 06:30N 45°13' W 085°50'4 7.4
2017-Dec-08 06:00N 45°14' W 085°44'4 7.2
2017-Dec-08 05:30N 45°14' W 085°40'4 7.3
2017-Dec-08 05:00N 45°16' W 085°35'4 7.5
2017-Dec-08 04:30N 45°17' W 085°30'4 7.4
2017-Dec-08 04:00N 45°18' W 085°25'4 7.5
2017-Dec-08 03:30N 45°20' W 085°20'2 3.9
2017-Dec-08 03:00N 45°19' W 085°17'0 0.7
2017-Dec-08 02:31N 45°19' W 085°18'0 0.0
2017-Dec-08 02:00N 45°19' W 085°18'0 0.0
2017-Dec-08 01:31N 45°19' W 085°18'0 0.0
2017-Dec-08 01:01N 45°19' W 085°18'0 0.0
2017-Dec-08 00:30N 45°19' W 085°18'0 0.0
2017-Dec-08 00:01N 45°19' W 085°18'0 0.0
2017-Dec-07 23:30N 45°19' W 085°18'0 0.0
2017-Dec-07 23:01N 45°19' W 085°18'0 0.0
2017-Dec-07 22:30N 45°19' W 085°18'0 0.0
2017-Dec-07 22:01N 45°19' W 085°18'0 0.1
2017-Dec-07 21:30N 45°19' W 085°18'1 2.9
2017-Dec-07 21:00N 45°20' W 085°18'4 7.3
2017-Dec-07 20:30N 45°22' W 085°23'2 3.8
2017-Dec-07 20:01N 45°23' W 085°26'1 2.2
2017-Dec-07 19:30N 45°22' W 085°25'1 2.2
2017-Dec-07 19:01N 45°21' W 085°24'1 2.4
2017-Dec-07 18:30N 45°20' W 085°22'1 2.4
2017-Dec-07 18:00N 45°20' W 085°20'1 2.4
2017-Dec-07 17:30N 45°20' W 085°19'1 1.9
2017-Dec-07 17:00N 45°20' W 085°18'1 1.6
2017-Dec-07 16:30N 45°20' W 085°17'0 0.8
2017-Dec-07 16:01N 45°19' W 085°17'4 7.2
2017-Dec-07 15:30N 45°21' W 085°21'4 8.9
2017-Dec-07 15:00N 45°24' W 085°27'5 9.2
2017-Dec-07 14:30N 45°26' W 085°32'5 9.0
2017-Dec-07 14:01N 45°28' W 085°38'5 9.1
2017-Dec-07 13:30N 45°31' W 085°43'4 8.8
2017-Dec-07 13:01N 45°32' W 085°49'4 8.8
2017-Dec-07 12:30N 45°33' W 085°56'4 8.7
2017-Dec-07 12:00N 45°33' W 086°02'5 9.2
2017-Dec-07 11:31N 45°37' W 086°06'5 9.2
2017-Dec-07 11:00N 45°40' W 086°11'  
2017-Dec-02 16:22N 45°13' W 085°39'3 8.2
2017-Dec-02 16:00N 45°14' W 085°35'4 8.3
2017-Dec-02 15:30N 45°16' W 085°30'4 8.2
2017-Dec-02 15:00N 45°18' W 085°25'4 8.3
2017-Dec-02 14:30N 45°20' W 085°20'2 3.6
2017-Dec-02 14:00N 45°19' W 085°17'0 0.5
2017-Dec-02 13:30N 45°19' W 085°18'0 0.0
2017-Dec-02 13:00N 45°19' W 085°18'0 0.0
2017-Dec-02 12:30N 45°19' W 085°18'0 0.0
2017-Dec-02 12:00N 45°19' W 085°18'0 0.0
2017-Dec-02 11:30N 45°19' W 085°18'0 0.1
2017-Dec-02 11:00N 45°19' W 085°18'0 0.0
2017-Dec-02 10:30N 45°19' W 085°18'0 0.0
2017-Dec-02 10:00N 45°19' W 085°18'0 0.0
2017-Dec-02 09:30N 45°19' W 085°18'0 0.0
2017-Dec-02 09:00N 45°19' W 085°18'0 0.0
2017-Dec-02 08:30N 45°19' W 085°18'0 0.0
2017-Dec-02 08:00N 45°19' W 085°18'1 1.9
2017-Dec-02 07:30N 45°20' W 085°18'4 8.3
2017-Dec-02 07:00N 45°19' W 085°23'5 9.2
2017-Dec-02 06:30N 45°17' W 085°29'4 9.1
2017-Dec-02 06:00N 45°14' W 085°35'  
2017-Nov-29 23:58N 45°14' W 085°47'4 8.6
2017-Nov-29 23:29N 45°15' W 085°41'4 8.7
2017-Nov-29 23:00N 45°16' W 085°35'4 8.6
2017-Nov-29 22:30N 45°17' W 085°29'4 8.6
2017-Nov-29 22:00N 45°19' W 085°23'4 8.3
2017-Nov-29 21:30N 45°20' W 085°18'1 2.1
2017-Nov-29 21:00N 45°19' W 085°18'0 0.0
2017-Nov-29 20:30N 45°19' W 085°18'0 0.0
2017-Nov-29 20:00N 45°19' W 085°18'0 0.0
2017-Nov-29 19:30N 45°19' W 085°18'0 0.0
2017-Nov-29 19:00N 45°19' W 085°18'0 0.0
2017-Nov-29 18:30N 45°19' W 085°18'0 0.0
2017-Nov-29 18:00N 45°19' W 085°18'0 0.0
2017-Nov-29 17:30N 45°19' W 085°18'0 0.0
2017-Nov-29 17:00N 45°19' W 085°18'0 0.0
2017-Nov-29 16:30N 45°19' W 085°18'0 0.0
2017-Nov-29 16:00N 45°19' W 085°18'0 0.0
2017-Nov-29 15:30N 45°19' W 085°18'1 1.2
2017-Nov-29 15:00N 45°20' W 085°17'4 7.4
2017-Nov-29 14:30N 45°22' W 085°22'4 9.0
2017-Nov-29 14:00N 45°24' W 085°27'5 9.2
2017-Nov-29 13:30N 45°26' W 085°33'5 9.1
2017-Nov-29 13:00N 45°29' W 085°38'5 9.2
2017-Nov-29 12:30N 45°31' W 085°44'  

Dump ship's entire track history